sensor_id;sensor_type;location;lat;lon;timestamp;P1;durP1;ratioP1;P2;durP2;ratioP2
41275;SDS011;27010;47.718;12.912;2023-03-01T00:02:00;30.53;;;18.10;;
41275;SDS011;27010;47.718;12.912;2023-03-01T00:05:20;26.63;;;17.73;;
41275;SDS011;27010;47.718;12.912;2023-03-01T00:08:22;29.63;;;18.57;;
41275;SDS011;27010;47.718;12.912;2023-03-01T00:11:26;28.57;;;17.83;;
41275;SDS011;27010;47.718;12.912;2023-03-01T00:14:30;26.27;;;17.70;;
41275;SDS011;27010;47.718;12.912;2023-03-01T00:17:32;29.20;;;18.97;;
41275;SDS011;27010;47.718;12.912;2023-03-01T00:20:35;29.97;;;17.80;;
41275;SDS011;27010;47.718;12.912;2023-03-01T00:23:37;29.97;;;18.20;;
41275;SDS011;27010;47.718;12.912;2023-03-01T00:26:40;33.80;;;17.77;;
41275;SDS011;27010;47.718;12.912;2023-03-01T00:29:42;25.00;;;16.80;;
41275;SDS011;27010;47.718;12.912;2023-03-01T00:32:45;27.63;;;18.30;;
41275;SDS011;27010;47.718;12.912;2023-03-01T00:35:47;26.03;;;16.87;;
41275;SDS011;27010;47.718;12.912;2023-03-01T00:38:49;27.00;;;18.20;;
41275;SDS011;27010;47.718;12.912;2023-03-01T00:41:51;30.77;;;18.37;;
41275;SDS011;27010;47.718;12.912;2023-03-01T00:44:53;24.97;;;16.97;;
41275;SDS011;27010;47.718;12.912;2023-03-01T00:47:56;27.53;;;16.97;;
41275;SDS011;27010;47.718;12.912;2023-03-01T00:51:04;25.50;;;16.00;;
41275;SDS011;27010;47.718;12.912;2023-03-01T00:54:09;25.73;;;17.70;;
41275;SDS011;27010;47.718;12.912;2023-03-01T00:57:12;27.30;;;16.70;;
41275;SDS011;27010;47.718;12.912;2023-03-01T01:00:14;26.40;;;17.27;;
41275;SDS011;27010;47.718;12.912;2023-03-01T01:03:16;29.33;;;18.13;;
41275;SDS011;27010;47.718;12.912;2023-03-01T01:06:20;28.90;;;17.53;;
41275;SDS011;27010;47.718;12.912;2023-03-01T01:09:24;28.23;;;17.97;;
41275;SDS011;27010;47.718;12.912;2023-03-01T01:12:26;27.53;;;17.37;;
41275;SDS011;27010;47.718;12.912;2023-03-01T01:15:28;26.87;;;17.93;;
41275;SDS011;27010;47.718;12.912;2023-03-01T01:18:30;30.60;;;19.10;;
41275;SDS011;27010;47.718;12.912;2023-03-01T01:21:33;27.63;;;17.67;;
41275;SDS011;27010;47.718;12.912;2023-03-01T01:24:35;31.17;;;17.87;;
41275;SDS011;27010;47.718;12.912;2023-03-01T01:27:37;30.63;;;17.87;;
41275;SDS011;27010;47.718;12.912;2023-03-01T01:30:39;27.03;;;18.20;;
41275;SDS011;27010;47.718;12.912;2023-03-01T01:33:43;27.77;;;17.67;;
41275;SDS011;27010;47.718;12.912;2023-03-01T01:36:49;28.10;;;18.67;;
41275;SDS011;27010;47.718;12.912;2023-03-01T01:39:55;25.17;;;16.27;;
41275;SDS011;27010;47.718;12.912;2023-03-01T01:42:57;25.73;;;16.93;;
41275;SDS011;27010;47.718;12.912;2023-03-01T01:46:01;28.40;;;17.70;;
41275;SDS011;27010;47.718;12.912;2023-03-01T01:49:07;27.50;;;16.77;;
41275;SDS011;27010;47.718;12.912;2023-03-01T01:52:36;26.07;;;17.03;;
41275;SDS011;27010;47.718;12.912;2023-03-01T01:55:40;25.30;;;16.80;;
41275;SDS011;27010;47.718;12.912;2023-03-01T01:58:45;28.97;;;18.40;;
41275;SDS011;27010;47.718;12.912;2023-03-01T02:01:49;29.60;;;18.30;;
41275;SDS011;27010;47.718;12.912;2023-03-01T02:04:52;25.40;;;17.80;;
41275;SDS011;27010;47.718;12.912;2023-03-01T02:08:00;29.30;;;16.97;;
41275;SDS011;27010;47.718;12.912;2023-03-01T02:11:03;25.57;;;16.63;;
41275;SDS011;27010;47.718;12.912;2023-03-01T02:14:05;27.53;;;17.00;;
41275;SDS011;27010;47.718;12.912;2023-03-01T02:17:08;31.17;;;17.90;;
41275;SDS011;27010;47.718;12.912;2023-03-01T02:23:30;25.10;;;17.27;;
41275;SDS011;27010;47.718;12.912;2023-03-01T02:29:41;24.17;;;17.10;;
41275;SDS011;27010;47.718;12.912;2023-03-01T02:32:45;26.03;;;17.70;;
41275;SDS011;27010;47.718;12.912;2023-03-01T02:35:47;25.63;;;17.10;;
41275;SDS011;27010;47.718;12.912;2023-03-01T02:38:50;29.60;;;17.47;;
41275;SDS011;27010;47.718;12.912;2023-03-01T02:41:54;28.67;;;17.50;;
41275;SDS011;27010;47.718;12.912;2023-03-01T02:44:59;23.87;;;17.03;;
41275;SDS011;27010;47.718;12.912;2023-03-01T02:48:02;29.77;;;17.07;;
41275;SDS011;27010;47.718;12.912;2023-03-01T02:51:11;29.20;;;18.27;;
41275;SDS011;27010;47.718;12.912;2023-03-01T02:54:55;23.83;;;16.90;;
41275;SDS011;27010;47.718;12.912;2023-03-01T02:58:12;25.17;;;16.43;;
41275;SDS011;27010;47.718;12.912;2023-03-01T03:01:14;34.23;;;18.10;;
41275;SDS011;27010;47.718;12.912;2023-03-01T03:04:19;25.97;;;16.80;;
41275;SDS011;27010;47.718;12.912;2023-03-01T03:07:22;32.87;;;19.53;;
41275;SDS011;27010;47.718;12.912;2023-03-01T03:10:26;25.13;;;16.87;;
41275;SDS011;27010;47.718;12.912;2023-03-01T03:13:30;24.43;;;16.90;;
41275;SDS011;27010;47.718;12.912;2023-03-01T03:16:34;24.73;;;15.93;;
41275;SDS011;27010;47.718;12.912;2023-03-01T03:19:36;25.73;;;17.23;;
41275;SDS011;27010;47.718;12.912;2023-03-01T03:22:39;23.73;;;16.00;;
41275;SDS011;27010;47.718;12.912;2023-03-01T03:25:42;27.30;;;17.40;;
41275;SDS011;27010;47.718;12.912;2023-03-01T03:28:45;26.03;;;16.27;;
41275;SDS011;27010;47.718;12.912;2023-03-01T03:31:48;24.20;;;16.17;;
41275;SDS011;27010;47.718;12.912;2023-03-01T03:34:50;28.03;;;17.13;;
41275;SDS011;27010;47.718;12.912;2023-03-01T03:37:52;28.20;;;16.23;;
41275;SDS011;27010;47.718;12.912;2023-03-01T03:41:05;24.60;;;16.27;;
41275;SDS011;27010;47.718;12.912;2023-03-01T03:44:08;26.03;;;16.57;;
41275;SDS011;27010;47.718;12.912;2023-03-01T03:47:10;25.40;;;16.90;;
41275;SDS011;27010;47.718;12.912;2023-03-01T03:50:13;30.23;;;18.00;;
41275;SDS011;27010;47.718;12.912;2023-03-01T03:53:16;31.53;;;17.50;;
41275;SDS011;27010;47.718;12.912;2023-03-01T03:56:19;29.43;;;17.50;;
41275;SDS011;27010;47.718;12.912;2023-03-01T03:59:21;24.97;;;17.07;;
41275;SDS011;27010;47.718;12.912;2023-03-01T04:02:23;25.63;;;18.20;;
41275;SDS011;27010;47.718;12.912;2023-03-01T04:05:26;29.17;;;18.03;;
41275;SDS011;27010;47.718;12.912;2023-03-01T04:08:28;32.10;;;17.97;;
41275;SDS011;27010;47.718;12.912;2023-03-01T04:11:31;24.10;;;16.60;;
41275;SDS011;27010;47.718;12.912;2023-03-01T04:14:33;24.50;;;16.60;;
41275;SDS011;27010;47.718;12.912;2023-03-01T04:17:35;24.80;;;16.07;;
41275;SDS011;27010;47.718;12.912;2023-03-01T04:20:37;26.17;;;17.13;;
41275;SDS011;27010;47.718;12.912;2023-03-01T04:23:41;26.90;;;16.47;;
41275;SDS011;27010;47.718;12.912;2023-03-01T04:26:43;27.27;;;17.80;;
41275;SDS011;27010;47.718;12.912;2023-03-01T04:29:45;29.83;;;18.13;;
41275;SDS011;27010;47.718;12.912;2023-03-01T04:32:47;27.20;;;16.60;;
41275;SDS011;27010;47.718;12.912;2023-03-01T04:35:50;24.13;;;15.97;;
41275;SDS011;27010;47.718;12.912;2023-03-01T04:38:53;24.93;;;16.87;;
41275;SDS011;27010;47.718;12.912;2023-03-01T04:41:56;25.37;;;16.63;;
41275;SDS011;27010;47.718;12.912;2023-03-01T04:44:58;29.20;;;18.63;;
41275;SDS011;27010;47.718;12.912;2023-03-01T04:48:01;28.73;;;18.10;;
41275;SDS011;27010;47.718;12.912;2023-03-01T04:51:04;30.43;;;20.30;;
41275;SDS011;27010;47.718;12.912;2023-03-01T04:54:07;31.80;;;20.40;;
41275;SDS011;27010;47.718;12.912;2023-03-01T04:57:10;29.57;;;17.73;;
41275;SDS011;27010;47.718;12.912;2023-03-01T05:00:12;30.00;;;18.83;;
41275;SDS011;27010;47.718;12.912;2023-03-01T05:03:21;26.90;;;17.07;;
41275;SDS011;27010;47.718;12.912;2023-03-01T05:06:24;31.33;;;18.87;;
41275;SDS011;27010;47.718;12.912;2023-03-01T05:09:26;26.30;;;17.97;;
41275;SDS011;27010;47.718;12.912;2023-03-01T05:12:28;29.97;;;19.40;;
41275;SDS011;27010;47.718;12.912;2023-03-01T05:15:31;28.87;;;18.97;;
41275;SDS011;27010;47.718;12.912;2023-03-01T05:18:33;29.70;;;18.60;;
41275;SDS011;27010;47.718;12.912;2023-03-01T05:21:39;26.37;;;17.93;;
41275;SDS011;27010;47.718;12.912;2023-03-01T05:25:00;33.43;;;18.60;;
41275;SDS011;27010;47.718;12.912;2023-03-01T05:28:02;28.87;;;17.67;;
41275;SDS011;27010;47.718;12.912;2023-03-01T05:31:06;29.83;;;17.73;;
41275;SDS011;27010;47.718;12.912;2023-03-01T05:34:12;30.60;;;18.63;;
41275;SDS011;27010;47.718;12.912;2023-03-01T05:37:14;29.90;;;19.40;;
41275;SDS011;27010;47.718;12.912;2023-03-01T05:40:18;28.13;;;18.23;;
41275;SDS011;27010;47.718;12.912;2023-03-01T05:43:21;26.67;;;17.33;;
41275;SDS011;27010;47.718;12.912;2023-03-01T05:46:24;28.93;;;17.00;;
41275;SDS011;27010;47.718;12.912;2023-03-01T05:49:26;27.17;;;17.37;;
41275;SDS011;27010;47.718;12.912;2023-03-01T05:52:28;27.47;;;17.83;;
41275;SDS011;27010;47.718;12.912;2023-03-01T05:55:31;28.40;;;18.30;;
41275;SDS011;27010;47.718;12.912;2023-03-01T05:58:33;27.97;;;17.77;;
41275;SDS011;27010;47.718;12.912;2023-03-01T06:01:36;29.90;;;18.57;;
41275;SDS011;27010;47.718;12.912;2023-03-01T06:04:39;27.43;;;17.97;;
41275;SDS011;27010;47.718;12.912;2023-03-01T06:07:42;30.17;;;19.30;;
41275;SDS011;27010;47.718;12.912;2023-03-01T06:10:45;27.70;;;17.17;;
41275;SDS011;27010;47.718;12.912;2023-03-01T06:13:49;27.30;;;17.53;;
41275;SDS011;27010;47.718;12.912;2023-03-01T06:16:51;26.17;;;17.13;;
41275;SDS011;27010;47.718;12.912;2023-03-01T06:19:53;46.53;;;27.60;;
41275;SDS011;27010;47.718;12.912;2023-03-01T06:22:56;30.93;;;20.60;;
41275;SDS011;27010;47.718;12.912;2023-03-01T06:26:04;32.07;;;18.13;;
41275;SDS011;27010;47.718;12.912;2023-03-01T06:29:07;32.50;;;18.07;;
41275;SDS011;27010;47.718;12.912;2023-03-01T06:32:10;26.80;;;18.10;;
41275;SDS011;27010;47.718;12.912;2023-03-01T06:35:13;29.80;;;18.23;;
41275;SDS011;27010;47.718;12.912;2023-03-01T06:38:16;27.60;;;17.70;;
41275;SDS011;27010;47.718;12.912;2023-03-01T06:41:20;36.23;;;17.23;;
41275;SDS011;27010;47.718;12.912;2023-03-01T06:44:23;26.27;;;17.00;;
41275;SDS011;27010;47.718;12.912;2023-03-01T06:47:26;26.63;;;17.77;;
41275;SDS011;27010;47.718;12.912;2023-03-01T06:50:28;30.73;;;17.03;;
41275;SDS011;27010;47.718;12.912;2023-03-01T06:53:30;26.80;;;16.70;;
41275;SDS011;27010;47.718;12.912;2023-03-01T06:56:32;27.07;;;17.57;;
41275;SDS011;27010;47.718;12.912;2023-03-01T06:59:35;29.03;;;18.50;;
41275;SDS011;27010;47.718;12.912;2023-03-01T07:02:37;26.63;;;16.73;;
41275;SDS011;27010;47.718;12.912;2023-03-01T07:05:39;26.27;;;16.93;;
41275;SDS011;27010;47.718;12.912;2023-03-01T07:08:41;30.33;;;16.40;;
41275;SDS011;27010;47.718;12.912;2023-03-01T07:11:44;27.37;;;17.37;;
41275;SDS011;27010;47.718;12.912;2023-03-01T07:14:46;26.50;;;16.50;;
41275;SDS011;27010;47.718;12.912;2023-03-01T07:17:48;28.03;;;16.77;;
41275;SDS011;27010;47.718;12.912;2023-03-01T07:20:52;29.23;;;18.43;;
41275;SDS011;27010;47.718;12.912;2023-03-01T07:23:54;28.63;;;17.50;;
41275;SDS011;27010;47.718;12.912;2023-03-01T07:26:56;30.27;;;17.97;;
41275;SDS011;27010;47.718;12.912;2023-03-01T07:29:59;22.90;;;16.00;;
41275;SDS011;27010;47.718;12.912;2023-03-01T07:33:03;25.63;;;17.00;;
41275;SDS011;27010;47.718;12.912;2023-03-01T07:36:06;29.30;;;16.93;;
41275;SDS011;27010;47.718;12.912;2023-03-01T07:39:09;25.63;;;17.40;;
41275;SDS011;27010;47.718;12.912;2023-03-01T07:42:12;29.07;;;16.13;;
41275;SDS011;27010;47.718;12.912;2023-03-01T07:45:14;28.77;;;17.83;;
41275;SDS011;27010;47.718;12.912;2023-03-01T07:48:17;28.67;;;17.07;;
41275;SDS011;27010;47.718;12.912;2023-03-01T07:51:19;27.37;;;17.90;;
41275;SDS011;27010;47.718;12.912;2023-03-01T07:54:38;29.20;;;17.90;;
41275;SDS011;27010;47.718;12.912;2023-03-01T07:57:41;33.10;;;17.00;;
41275;SDS011;27010;47.718;12.912;2023-03-01T08:00:43;28.57;;;17.73;;
41275;SDS011;27010;47.718;12.912;2023-03-01T08:03:45;32.33;;;18.70;;
41275;SDS011;27010;47.718;12.912;2023-03-01T08:06:49;29.53;;;17.00;;
41275;SDS011;27010;47.718;12.912;2023-03-01T08:09:51;28.17;;;17.67;;
41275;SDS011;27010;47.718;12.912;2023-03-01T08:12:53;32.67;;;18.93;;
41275;SDS011;27010;47.718;12.912;2023-03-01T08:16:06;30.63;;;18.57;;
41275;SDS011;27010;47.718;12.912;2023-03-01T08:19:10;33.07;;;18.63;;
41275;SDS011;27010;47.718;12.912;2023-03-01T08:22:13;31.57;;;18.30;;
41275;SDS011;27010;47.718;12.912;2023-03-01T08:25:15;25.87;;;17.53;;
41275;SDS011;27010;47.718;12.912;2023-03-01T08:28:17;30.30;;;17.70;;
41275;SDS011;27010;47.718;12.912;2023-03-01T08:31:20;30.53;;;18.97;;
41275;SDS011;27010;47.718;12.912;2023-03-01T08:34:28;32.70;;;18.43;;
41275;SDS011;27010;47.718;12.912;2023-03-01T08:37:31;32.07;;;18.67;;
41275;SDS011;27010;47.718;12.912;2023-03-01T08:40:35;31.43;;;19.13;;
41275;SDS011;27010;47.718;12.912;2023-03-01T08:43:37;30.63;;;18.53;;
41275;SDS011;27010;47.718;12.912;2023-03-01T08:46:40;27.03;;;18.20;;
41275;SDS011;27010;47.718;12.912;2023-03-01T08:49:43;32.40;;;19.13;;
41275;SDS011;27010;47.718;12.912;2023-03-01T08:52:45;32.20;;;19.37;;
41275;SDS011;27010;47.718;12.912;2023-03-01T08:55:47;38.90;;;21.07;;
41275;SDS011;27010;47.718;12.912;2023-03-01T08:58:51;36.20;;;21.07;;
41275;SDS011;27010;47.718;12.912;2023-03-01T09:01:53;35.50;;;20.23;;
41275;SDS011;27010;47.718;12.912;2023-03-01T09:04:55;31.17;;;19.43;;
41275;SDS011;27010;47.718;12.912;2023-03-01T09:07:57;28.23;;;18.10;;
41275;SDS011;27010;47.718;12.912;2023-03-01T09:11:06;37.60;;;19.60;;
41275;SDS011;27010;47.718;12.912;2023-03-01T09:14:11;33.30;;;19.40;;
41275;SDS011;27010;47.718;12.912;2023-03-01T09:17:14;35.17;;;20.50;;
41275;SDS011;27010;47.718;12.912;2023-03-01T09:20:16;40.40;;;20.63;;
41275;SDS011;27010;47.718;12.912;2023-03-01T09:23:19;43.63;;;22.80;;
41275;SDS011;27010;47.718;12.912;2023-03-01T09:26:22;40.57;;;23.83;;
41275;SDS011;27010;47.718;12.912;2023-03-01T09:29:25;39.07;;;21.43;;
41275;SDS011;27010;47.718;12.912;2023-03-01T09:32:29;40.87;;;23.90;;
41275;SDS011;27010;47.718;12.912;2023-03-01T09:35:32;40.07;;;23.13;;
41275;SDS011;27010;47.718;12.912;2023-03-01T09:38:34;44.40;;;23.67;;
41275;SDS011;27010;47.718;12.912;2023-03-01T09:41:48;43.40;;;24.00;;
41275;SDS011;27010;47.718;12.912;2023-03-01T09:44:54;43.70;;;23.97;;
41275;SDS011;27010;47.718;12.912;2023-03-01T09:48:02;41.93;;;24.00;;
41275;SDS011;27010;47.718;12.912;2023-03-01T09:51:07;42.37;;;23.73;;
41275;SDS011;27010;47.718;12.912;2023-03-01T09:54:11;37.23;;;20.40;;
41275;SDS011;27010;47.718;12.912;2023-03-01T09:57:27;44.40;;;24.47;;
41275;SDS011;27010;47.718;12.912;2023-03-01T10:00:36;42.37;;;24.73;;
41275;SDS011;27010;47.718;12.912;2023-03-01T10:10:36;38.77;;;21.97;;
41275;SDS011;27010;47.718;12.912;2023-03-01T10:13:45;36.03;;;21.57;;
41275;SDS011;27010;47.718;12.912;2023-03-01T10:20:10;33.43;;;20.83;;
41275;SDS011;27010;47.718;12.912;2023-03-01T10:23:24;37.67;;;21.50;;
41275;SDS011;27010;47.718;12.912;2023-03-01T10:30:16;31.23;;;19.73;;
41275;SDS011;27010;47.718;12.912;2023-03-01T10:33:19;29.83;;;19.20;;
41275;SDS011;27010;47.718;12.912;2023-03-01T10:36:23;33.07;;;19.47;;
41275;SDS011;27010;47.718;12.912;2023-03-01T10:39:26;31.13;;;18.43;;
41275;SDS011;27010;47.718;12.912;2023-03-01T10:42:29;28.57;;;18.13;;
41275;SDS011;27010;47.718;12.912;2023-03-01T10:45:37;36.33;;;19.33;;
41275;SDS011;27010;47.718;12.912;2023-03-01T10:48:40;31.10;;;19.20;;
41275;SDS011;27010;47.718;12.912;2023-03-01T10:51:43;32.07;;;18.17;;
41275;SDS011;27010;47.718;12.912;2023-03-01T10:54:55;30.93;;;20.13;;
41275;SDS011;27010;47.718;12.912;2023-03-01T10:58:11;29.47;;;18.70;;
41275;SDS011;27010;47.718;12.912;2023-03-01T11:04:19;28.47;;;18.63;;
41275;SDS011;27010;47.718;12.912;2023-03-01T11:07:21;29.47;;;18.30;;
41275;SDS011;27010;47.718;12.912;2023-03-01T11:10:25;26.13;;;16.73;;
41275;SDS011;27010;47.718;12.912;2023-03-01T11:13:31;30.80;;;18.57;;
41275;SDS011;27010;47.718;12.912;2023-03-01T11:16:37;29.50;;;19.07;;
41275;SDS011;27010;47.718;12.912;2023-03-01T11:19:40;35.17;;;19.53;;
41275;SDS011;27010;47.718;12.912;2023-03-01T11:22:58;31.90;;;19.00;;
41275;SDS011;27010;47.718;12.912;2023-03-01T11:26:04;28.47;;;18.10;;
41275;SDS011;27010;47.718;12.912;2023-03-01T11:32:45;32.00;;;19.73;;
41275;SDS011;27010;47.718;12.912;2023-03-01T11:36:16;29.00;;;17.93;;
41275;SDS011;27010;47.718;12.912;2023-03-01T11:39:31;27.00;;;16.50;;
41275;SDS011;27010;47.718;12.912;2023-03-01T11:42:47;27.67;;;16.97;;
41275;SDS011;27010;47.718;12.912;2023-03-01T11:45:57;31.10;;;18.37;;
41275;SDS011;27010;47.718;12.912;2023-03-01T11:55:52;26.23;;;17.43;;
41275;SDS011;27010;47.718;12.912;2023-03-01T11:59:17;28.10;;;17.23;;
41275;SDS011;27010;47.718;12.912;2023-03-01T12:05:56;26.93;;;17.00;;
41275;SDS011;27010;47.718;12.912;2023-03-01T12:18:59;25.77;;;17.13;;
41275;SDS011;27010;47.718;12.912;2023-03-01T12:22:17;29.20;;;16.63;;
41275;SDS011;27010;47.718;12.912;2023-03-01T12:25:28;31.67;;;17.37;;
41275;SDS011;27010;47.718;12.912;2023-03-01T12:28:45;36.43;;;18.17;;
41275;SDS011;27010;47.718;12.912;2023-03-01T12:38:42;30.57;;;18.43;;
41275;SDS011;27010;47.718;12.912;2023-03-01T12:48:25;27.70;;;17.03;;
41275;SDS011;27010;47.718;12.912;2023-03-01T12:51:51;31.90;;;17.80;;
41275;SDS011;27010;47.718;12.912;2023-03-01T12:54:59;25.83;;;16.10;;
41275;SDS011;27010;47.718;12.912;2023-03-01T12:58:05;31.53;;;17.80;;
41275;SDS011;27010;47.718;12.912;2023-03-01T13:11:21;31.73;;;17.90;;
41275;SDS011;27010;47.718;12.912;2023-03-01T13:17:33;27.53;;;17.63;;
41275;SDS011;27010;47.718;12.912;2023-03-01T13:23:51;27.83;;;17.60;;
41275;SDS011;27010;47.718;12.912;2023-03-01T13:33:42;25.93;;;16.90;;
41275;SDS011;27010;47.718;12.912;2023-03-01T13:36:54;28.00;;;17.40;;
41275;SDS011;27010;47.718;12.912;2023-03-01T13:43:28;27.17;;;16.70;;
41275;SDS011;27010;47.718;12.912;2023-03-01T13:46:32;27.20;;;17.90;;
41275;SDS011;27010;47.718;12.912;2023-03-01T13:49:40;29.03;;;17.33;;
41275;SDS011;27010;47.718;12.912;2023-03-01T13:53:00;28.23;;;16.70;;
41275;SDS011;27010;47.718;12.912;2023-03-01T13:56:12;24.37;;;16.83;;
41275;SDS011;27010;47.718;12.912;2023-03-01T13:59:17;26.13;;;16.63;;
41275;SDS011;27010;47.718;12.912;2023-03-01T14:02:20;28.40;;;18.23;;
41275;SDS011;27010;47.718;12.912;2023-03-01T14:05:22;28.83;;;18.13;;
41275;SDS011;27010;47.718;12.912;2023-03-01T14:08:25;25.60;;;17.43;;
41275;SDS011;27010;47.718;12.912;2023-03-01T14:14:46;28.37;;;17.83;;
41275;SDS011;27010;47.718;12.912;2023-03-01T14:21:17;28.57;;;17.27;;
41275;SDS011;27010;47.718;12.912;2023-03-01T14:24:20;29.97;;;17.83;;
41275;SDS011;27010;47.718;12.912;2023-03-01T14:27:28;25.40;;;17.00;;
41275;SDS011;27010;47.718;12.912;2023-03-01T14:30:47;28.63;;;16.90;;
41275;SDS011;27010;47.718;12.912;2023-03-01T14:33:54;28.93;;;16.20;;
41275;SDS011;27010;47.718;12.912;2023-03-01T14:36:57;26.43;;;17.10;;
41275;SDS011;27010;47.718;12.912;2023-03-01T14:40:35;22.77;;;15.40;;
41275;SDS011;27010;47.718;12.912;2023-03-01T14:43:39;27.37;;;16.33;;
41275;SDS011;27010;47.718;12.912;2023-03-01T14:46:44;26.40;;;16.57;;
41275;SDS011;27010;47.718;12.912;2023-03-01T14:49:46;27.43;;;15.63;;
41275;SDS011;27010;47.718;12.912;2023-03-01T14:52:50;23.27;;;15.00;;
41275;SDS011;27010;47.718;12.912;2023-03-01T14:55:59;24.80;;;16.13;;
41275;SDS011;27010;47.718;12.912;2023-03-01T14:59:04;23.70;;;15.30;;
41275;SDS011;27010;47.718;12.912;2023-03-01T15:02:08;23.77;;;16.63;;
41275;SDS011;27010;47.718;12.912;2023-03-01T15:05:22;24.90;;;16.27;;
41275;SDS011;27010;47.718;12.912;2023-03-01T15:08:31;26.97;;;16.40;;
41275;SDS011;27010;47.718;12.912;2023-03-01T15:11:36;31.33;;;17.10;;
41275;SDS011;27010;47.718;12.912;2023-03-01T15:14:41;25.37;;;15.87;;
41275;SDS011;27010;47.718;12.912;2023-03-01T15:17:53;23.37;;;15.80;;
41275;SDS011;27010;47.718;12.912;2023-03-01T15:21:06;23.60;;;15.13;;
41275;SDS011;27010;47.718;12.912;2023-03-01T15:24:17;24.17;;;15.77;;
41275;SDS011;27010;47.718;12.912;2023-03-01T15:27:25;21.30;;;14.87;;
41275;SDS011;27010;47.718;12.912;2023-03-01T15:30:34;26.70;;;16.43;;
41275;SDS011;27010;47.718;12.912;2023-03-01T15:33:41;26.60;;;17.37;;
41275;SDS011;27010;47.718;12.912;2023-03-01T15:36:49;28.83;;;19.67;;
41275;SDS011;27010;47.718;12.912;2023-03-01T15:39:53;35.70;;;22.17;;
41275;SDS011;27010;47.718;12.912;2023-03-01T15:42:57;28.77;;;18.53;;
41275;SDS011;27010;47.718;12.912;2023-03-01T15:46:00;30.37;;;19.73;;
41275;SDS011;27010;47.718;12.912;2023-03-01T15:49:21;30.43;;;19.47;;
41275;SDS011;27010;47.718;12.912;2023-03-01T15:52:35;26.83;;;18.53;;
41275;SDS011;27010;47.718;12.912;2023-03-01T15:55:41;25.43;;;17.87;;
41275;SDS011;27010;47.718;12.912;2023-03-01T15:58:43;30.37;;;18.03;;
41275;SDS011;27010;47.718;12.912;2023-03-01T16:01:46;27.30;;;18.83;;
41275;SDS011;27010;47.718;12.912;2023-03-01T16:04:50;35.33;;;22.57;;
41275;SDS011;27010;47.718;12.912;2023-03-01T16:07:52;39.50;;;24.63;;
41275;SDS011;27010;47.718;12.912;2023-03-01T16:10:54;36.17;;;22.30;;
41275;SDS011;27010;47.718;12.912;2023-03-01T16:13:56;34.63;;;20.23;;
41275;SDS011;27010;47.718;12.912;2023-03-01T16:16:58;37.03;;;22.77;;
41275;SDS011;27010;47.718;12.912;2023-03-01T16:20:00;43.70;;;25.47;;
41275;SDS011;27010;47.718;12.912;2023-03-01T16:23:03;48.33;;;30.90;;
41275;SDS011;27010;47.718;12.912;2023-03-01T16:26:07;44.23;;;22.67;;
41275;SDS011;27010;47.718;12.912;2023-03-01T16:29:09;33.70;;;19.33;;
41275;SDS011;27010;47.718;12.912;2023-03-01T16:32:11;31.30;;;20.07;;
41275;SDS011;27010;47.718;12.912;2023-03-01T16:35:14;39.83;;;21.80;;
41275;SDS011;27010;47.718;12.912;2023-03-01T16:38:19;51.33;;;28.03;;
41275;SDS011;27010;47.718;12.912;2023-03-01T16:41:22;55.43;;;28.60;;
41275;SDS011;27010;47.718;12.912;2023-03-01T16:44:24;65.97;;;32.47;;
41275;SDS011;27010;47.718;12.912;2023-03-01T16:47:27;57.63;;;29.03;;
41275;SDS011;27010;47.718;12.912;2023-03-01T16:50:30;70.60;;;34.00;;
41275;SDS011;27010;47.718;12.912;2023-03-01T16:53:32;46.37;;;30.57;;
41275;SDS011;27010;47.718;12.912;2023-03-01T16:56:35;45.83;;;31.17;;
41275;SDS011;27010;47.718;12.912;2023-03-01T16:59:40;36.93;;;24.53;;
41275;SDS011;27010;47.718;12.912;2023-03-01T17:02:42;29.53;;;19.47;;
41275;SDS011;27010;47.718;12.912;2023-03-01T17:05:44;32.40;;;19.43;;
41275;SDS011;27010;47.718;12.912;2023-03-01T17:08:47;28.00;;;17.17;;
41275;SDS011;27010;47.718;12.912;2023-03-01T17:11:49;29.70;;;17.40;;
41275;SDS011;27010;47.718;12.912;2023-03-01T17:14:51;26.33;;;16.93;;
41275;SDS011;27010;47.718;12.912;2023-03-01T17:17:53;34.83;;;18.63;;
41275;SDS011;27010;47.718;12.912;2023-03-01T17:20:55;30.10;;;17.13;;
41275;SDS011;27010;47.718;12.912;2023-03-01T17:23:57;29.87;;;18.57;;
41275;SDS011;27010;47.718;12.912;2023-03-01T17:26:59;35.37;;;19.73;;
41275;SDS011;27010;47.718;12.912;2023-03-01T17:30:02;30.97;;;18.53;;
41275;SDS011;27010;47.718;12.912;2023-03-01T17:33:04;29.17;;;17.70;;
41275;SDS011;27010;47.718;12.912;2023-03-01T17:36:06;34.33;;;19.73;;
41275;SDS011;27010;47.718;12.912;2023-03-01T17:39:09;31.53;;;19.53;;
41275;SDS011;27010;47.718;12.912;2023-03-01T17:42:12;34.93;;;19.30;;
41275;SDS011;27010;47.718;12.912;2023-03-01T17:45:14;31.17;;;17.90;;
41275;SDS011;27010;47.718;12.912;2023-03-01T17:48:16;32.27;;;19.30;;
41275;SDS011;27010;47.718;12.912;2023-03-01T17:51:18;29.90;;;18.73;;
41275;SDS011;27010;47.718;12.912;2023-03-01T17:54:21;30.20;;;19.17;;
41275;SDS011;27010;47.718;12.912;2023-03-01T17:57:23;29.63;;;18.83;;
41275;SDS011;27010;47.718;12.912;2023-03-01T18:00:25;34.27;;;20.00;;
41275;SDS011;27010;47.718;12.912;2023-03-01T18:03:28;31.17;;;18.47;;
41275;SDS011;27010;47.718;12.912;2023-03-01T18:06:30;29.00;;;17.57;;
41275;SDS011;27010;47.718;12.912;2023-03-01T18:09:32;30.27;;;18.40;;
41275;SDS011;27010;47.718;12.912;2023-03-01T18:12:34;30.43;;;17.43;;
41275;SDS011;27010;47.718;12.912;2023-03-01T18:15:36;35.10;;;18.40;;
41275;SDS011;27010;47.718;12.912;2023-03-01T18:18:39;31.93;;;17.37;;
41275;SDS011;27010;47.718;12.912;2023-03-01T18:21:41;33.43;;;18.90;;
41275;SDS011;27010;47.718;12.912;2023-03-01T18:24:44;34.90;;;18.60;;
41275;SDS011;27010;47.718;12.912;2023-03-01T18:27:46;31.37;;;17.90;;
41275;SDS011;27010;47.718;12.912;2023-03-01T18:30:48;33.87;;;20.90;;
41275;SDS011;27010;47.718;12.912;2023-03-01T18:33:51;35.10;;;20.37;;
41275;SDS011;27010;47.718;12.912;2023-03-01T18:36:55;36.90;;;20.63;;
41275;SDS011;27010;47.718;12.912;2023-03-01T18:40:09;56.27;;;27.17;;
41275;SDS011;27010;47.718;12.912;2023-03-01T18:43:13;50.47;;;28.30;;
41275;SDS011;27010;47.718;12.912;2023-03-01T18:46:15;38.43;;;23.07;;
41275;SDS011;27010;47.718;12.912;2023-03-01T18:49:17;33.07;;;20.63;;
41275;SDS011;27010;47.718;12.912;2023-03-01T18:52:20;38.90;;;22.30;;
41275;SDS011;27010;47.718;12.912;2023-03-01T18:55:22;37.23;;;20.00;;
41275;SDS011;27010;47.718;12.912;2023-03-01T18:58:24;36.67;;;20.90;;
41275;SDS011;27010;47.718;12.912;2023-03-01T19:01:26;35.77;;;20.83;;
41275;SDS011;27010;47.718;12.912;2023-03-01T19:04:30;32.57;;;18.73;;
41275;SDS011;27010;47.718;12.912;2023-03-01T19:07:32;35.57;;;21.23;;
41275;SDS011;27010;47.718;12.912;2023-03-01T19:10:34;73.70;;;37.17;;
41275;SDS011;27010;47.718;12.912;2023-03-01T19:13:37;47.60;;;24.77;;
41275;SDS011;27010;47.718;12.912;2023-03-01T19:16:40;33.20;;;20.37;;
41275;SDS011;27010;47.718;12.912;2023-03-01T19:19:43;36.47;;;20.93;;